Terminal Aerodrome Forecast
Issued by NWS

Home | Current Version | Previous Version | Text Only | Print | Product List | Glossary On
Versions: 1 2 3 4 5 6 7 8 9 10 11 12 13 14
000
FTUS41 KBOX 232341
TAFBAF
TAF
KBAF 232341Z 2400/2424 19008KT P6SM FEW250
     FM240300 19004KT 4SM BR BKN250
     FM240400 VRB03KT 4SM BR BKN100
     FM240600 00000KT 2SM BR BKN008
     FM241200 00000KT 1SM BR VCSH OVC003
     FM241400 00000KT 1SM BR BKN010
     FM241600 19006KT P6SM BKN080
     FM242200 18006KT P6SM BKN015=

USA.gov is the U.S. government's official web portal to all federal, state and local government web resources and services.